sensor_id;sensor_type;location;lat;lon;timestamp;pressure;altitude;pressure_sealevel;temperature;humidity
13934;BME280;7039;52.168;9.866;2022-08-18T00:01:56;100123.13;;;20.55;79.46
13934;BME280;7039;52.168;9.866;2022-08-18T00:04:27;100129.44;;;20.54;79.35
13934;BME280;7039;52.168;9.866;2022-08-18T00:06:53;100129.19;;;20.47;79.77
13934;BME280;7039;52.168;9.866;2022-08-18T00:09:20;100139.56;;;20.40;80.04
13934;BME280;7039;52.168;9.866;2022-08-18T00:11:46;100135.00;;;20.33;80.55
13934;BME280;7039;52.168;9.866;2022-08-18T00:14:15;100132.34;;;20.33;80.40
13934;BME280;7039;52.168;9.866;2022-08-18T00:16:42;100130.28;;;20.27;80.65
13934;BME280;7039;52.168;9.866;2022-08-18T00:19:08;100123.38;;;20.16;81.15
13934;BME280;7039;52.168;9.866;2022-08-18T00:21:36;100120.84;;;20.24;81.36
13934;BME280;7039;52.168;9.866;2022-08-18T00:24:03;100125.69;;;20.29;81.41
13934;BME280;7039;52.168;9.866;2022-08-18T00:26:30;100129.16;;;20.29;80.86
13934;BME280;7039;52.168;9.866;2022-08-18T00:28:56;100133.63;;;20.29;80.59
13934;BME280;7039;52.168;9.866;2022-08-18T00:31:23;100139.31;;;20.34;80.15
13934;BME280;7039;52.168;9.866;2022-08-18T00:33:50;100130.53;;;20.33;80.10
13934;BME280;7039;52.168;9.866;2022-08-18T00:36:16;100136.91;;;20.40;80.48
13934;BME280;7039;52.168;9.866;2022-08-18T00:38:44;100145.75;;;20.59;81.08
13934;BME280;7039;52.168;9.866;2022-08-18T00:41:11;100141.44;;;20.58;82.88
13934;BME280;7039;52.168;9.866;2022-08-18T00:43:40;100147.34;;;20.70;83.48
13934;BME280;7039;52.168;9.866;2022-08-18T00:46:08;100142.38;;;20.67;84.05
13934;BME280;7039;52.168;9.866;2022-08-18T00:48:37;100145.84;;;20.67;84.37
13934;BME280;7039;52.168;9.866;2022-08-18T00:51:07;100149.84;;;20.71;84.66
13934;BME280;7039;52.168;9.866;2022-08-18T00:53:38;100152.78;;;20.68;85.02
13934;BME280;7039;52.168;9.866;2022-08-18T00:56:12;100148.75;;;20.64;85.55
13934;BME280;7039;52.168;9.866;2022-08-18T00:58:41;100146.44;;;20.61;86.04
13934;BME280;7039;52.168;9.866;2022-08-18T01:01:12;100150.50;;;20.55;86.63
13934;BME280;7039;52.168;9.866;2022-08-18T01:03:40;100149.69;;;20.45;87.65
13934;BME280;7039;52.168;9.866;2022-08-18T01:06:12;100143.03;;;20.41;88.31
13934;BME280;7039;52.168;9.866;2022-08-18T01:08:40;100141.13;;;20.33;88.70
13934;BME280;7039;52.168;9.866;2022-08-18T01:11:08;100134.00;;;20.34;89.09
13934;BME280;7039;52.168;9.866;2022-08-18T01:13:35;100137.94;;;20.30;89.33
13934;BME280;7039;52.168;9.866;2022-08-18T01:16:06;100136.56;;;20.26;89.43
13934;BME280;7039;52.168;9.866;2022-08-18T01:18:46;100128.41;;;20.19;89.97
13934;BME280;7039;52.168;9.866;2022-08-18T01:21:32;100131.88;;;20.19;89.96
13934;BME280;7039;52.168;9.866;2022-08-18T01:24:20;100130.88;;;20.20;89.89
13934;BME280;7039;52.168;9.866;2022-08-18T01:27:08;100129.91;;;20.21;90.12
13934;BME280;7039;52.168;9.866;2022-08-18T01:29:34;100130.97;;;20.29;89.55
13934;BME280;7039;52.168;9.866;2022-08-18T01:32:02;100127.25;;;20.21;90.32
13934;BME280;7039;52.168;9.866;2022-08-18T01:34:28;100135.16;;;20.31;89.45
13934;BME280;7039;52.168;9.866;2022-08-18T01:36:55;100143.78;;;20.33;88.29
13934;BME280;7039;52.168;9.866;2022-08-18T01:39:23;100144.22;;;20.29;88.83
13934;BME280;7039;52.168;9.866;2022-08-18T01:41:50;100142.16;;;20.22;88.61
13934;BME280;7039;52.168;9.866;2022-08-18T01:44:16;100139.81;;;20.19;89.04
13934;BME280;7039;52.168;9.866;2022-08-18T01:46:43;100137.69;;;20.23;88.25
13934;BME280;7039;52.168;9.866;2022-08-18T01:49:09;100141.97;;;20.34;88.32
13934;BME280;7039;52.168;9.866;2022-08-18T01:51:37;100136.34;;;20.19;89.85
13934;BME280;7039;52.168;9.866;2022-08-18T01:54:08;100140.19;;;20.24;89.04
13934;BME280;7039;52.168;9.866;2022-08-18T01:56:37;100145.38;;;20.16;89.52
13934;BME280;7039;52.168;9.866;2022-08-18T01:59:04;100143.88;;;20.14;89.60
13934;BME280;7039;52.168;9.866;2022-08-18T02:01:31;100145.00;;;20.11;89.25
13934;BME280;7039;52.168;9.866;2022-08-18T02:04:03;100149.91;;;20.06;89.28
13934;BME280;7039;52.168;9.866;2022-08-18T02:06:32;100145.47;;;19.97;89.87
13934;BME280;7039;52.168;9.866;2022-08-18T02:08:59;100149.53;;;19.91;89.90
13934;BME280;7039;52.168;9.866;2022-08-18T02:11:25;100143.97;;;19.85;90.03
13934;BME280;7039;52.168;9.866;2022-08-18T02:13:53;100150.97;;;19.86;91.17
13934;BME280;7039;52.168;9.866;2022-08-18T02:16:20;100156.38;;;19.84;90.80
13934;BME280;7039;52.168;9.866;2022-08-18T02:18:46;100151.91;;;19.85;91.64
13934;BME280;7039;52.168;9.866;2022-08-18T02:21:17;100155.13;;;19.88;92.09
13934;BME280;7039;52.168;9.866;2022-08-18T02:23:44;100148.19;;;19.87;92.80
13934;BME280;7039;52.168;9.866;2022-08-18T02:26:14;100162.06;;;19.89;92.51
13934;BME280;7039;52.168;9.866;2022-08-18T02:28:41;100159.88;;;19.85;93.33
13934;BME280;7039;52.168;9.866;2022-08-18T02:31:11;100151.06;;;19.94;92.87
13934;BME280;7039;52.168;9.866;2022-08-18T02:33:39;100145.63;;;19.95;91.90
13934;BME280;7039;52.168;9.866;2022-08-18T02:36:06;100144.09;;;19.93;91.92
13934;BME280;7039;52.168;9.866;2022-08-18T02:38:33;100150.09;;;19.95;91.26
13934;BME280;7039;52.168;9.866;2022-08-18T02:41:02;100142.44;;;19.92;91.23
13934;BME280;7039;52.168;9.866;2022-08-18T02:43:30;100146.75;;;19.93;91.36
13934;BME280;7039;52.168;9.866;2022-08-18T02:45:57;100151.34;;;19.91;91.17
13934;BME280;7039;52.168;9.866;2022-08-18T02:48:25;100154.00;;;19.91;91.59
13934;BME280;7039;52.168;9.866;2022-08-18T02:50:59;100157.34;;;19.93;90.66
13934;BME280;7039;52.168;9.866;2022-08-18T02:53:25;100156.50;;;19.92;90.33
13934;BME280;7039;52.168;9.866;2022-08-18T02:55:53;100160.56;;;19.87;90.66
13934;BME280;7039;52.168;9.866;2022-08-18T02:58:19;100153.47;;;19.87;91.27
13934;BME280;7039;52.168;9.866;2022-08-18T03:00:46;100156.38;;;19.84;92.34
13934;BME280;7039;52.168;9.866;2022-08-18T03:03:13;100155.13;;;19.88;92.27
13934;BME280;7039;52.168;9.866;2022-08-18T03:05:41;100158.47;;;19.90;92.84
13934;BME280;7039;52.168;9.866;2022-08-18T03:08:07;100163.38;;;19.85;93.47
13934;BME280;7039;52.168;9.866;2022-08-18T03:10:34;100168.09;;;19.81;93.75
13934;BME280;7039;52.168;9.866;2022-08-18T03:13:01;100160.59;;;19.77;94.23
13934;BME280;7039;52.168;9.866;2022-08-18T03:15:27;100161.44;;;19.68;95.28
13934;BME280;7039;52.168;9.866;2022-08-18T03:17:54;100159.91;;;19.65;96.02
13934;BME280;7039;52.168;9.866;2022-08-18T03:20:20;100160.34;;;19.60;96.05
13934;BME280;7039;52.168;9.866;2022-08-18T03:22:49;100164.63;;;19.61;96.37
13934;BME280;7039;52.168;9.866;2022-08-18T03:25:16;100164.09;;;19.58;96.25
13934;BME280;7039;52.168;9.866;2022-08-18T03:27:43;100157.72;;;19.51;96.39
13934;BME280;7039;52.168;9.866;2022-08-18T03:30:09;100158.41;;;19.43;96.85
13934;BME280;7039;52.168;9.866;2022-08-18T03:32:36;100160.09;;;19.44;96.87
13934;BME280;7039;52.168;9.866;2022-08-18T03:35:03;100153.53;;;19.38;97.29
13934;BME280;7039;52.168;9.866;2022-08-18T03:37:30;100155.50;;;19.36;97.67
13934;BME280;7039;52.168;9.866;2022-08-18T03:39:58;100159.66;;;19.39;97.65
13934;BME280;7039;52.168;9.866;2022-08-18T03:42:25;100154.97;;;19.33;97.93
13934;BME280;7039;52.168;9.866;2022-08-18T03:44:52;100150.38;;;19.35;97.91
13934;BME280;7039;52.168;9.866;2022-08-18T03:47:18;100157.44;;;19.34;98.09
13934;BME280;7039;52.168;9.866;2022-08-18T03:49:45;100160.38;;;19.31;98.10
13934;BME280;7039;52.168;9.866;2022-08-18T03:52:12;100159.81;;;19.37;97.48
13934;BME280;7039;52.168;9.866;2022-08-18T03:54:40;100162.47;;;19.37;96.77
13934;BME280;7039;52.168;9.866;2022-08-18T03:57:09;100169.28;;;19.40;95.82
13934;BME280;7039;52.168;9.866;2022-08-18T03:59:37;100164.41;;;19.45;95.70
13934;BME280;7039;52.168;9.866;2022-08-18T04:02:06;100158.41;;;19.43;95.60
13934;BME280;7039;52.168;9.866;2022-08-18T04:04:33;100162.16;;;19.40;96.06
13934;BME280;7039;52.168;9.866;2022-08-18T04:07:05;100170.81;;;19.43;95.99
13934;BME280;7039;52.168;9.866;2022-08-18T04:09:33;100173.59;;;19.41;97.44
13934;BME280;7039;52.168;9.866;2022-08-18T04:12:03;100176.09;;;19.43;96.83
13934;BME280;7039;52.168;9.866;2022-08-18T04:14:36;100190.28;;;19.51;96.43
13934;BME280;7039;52.168;9.866;2022-08-18T04:17:03;100181.50;;;19.41;96.87
13934;BME280;7039;52.168;9.866;2022-08-18T04:19:30;100184.59;;;19.46;95.76
13934;BME280;7039;52.168;9.866;2022-08-18T04:21:59;100192.78;;;19.63;94.56
13934;BME280;7039;52.168;9.866;2022-08-18T04:24:28;100189.44;;;19.70;93.90
13934;BME280;7039;52.168;9.866;2022-08-18T04:26:57;100193.59;;;19.73;93.89
13934;BME280;7039;52.168;9.866;2022-08-18T04:29:24;100186.91;;;19.59;95.17
13934;BME280;7039;52.168;9.866;2022-08-18T04:31:52;100193.19;;;19.68;94.66
13934;BME280;7039;52.168;9.866;2022-08-18T04:34:21;100188.63;;;19.70;93.97
13934;BME280;7039;52.168;9.866;2022-08-18T04:36:48;100198.91;;;19.73;93.95
13934;BME280;7039;52.168;9.866;2022-08-18T04:39:18;100195.56;;;19.80;92.80
13934;BME280;7039;52.168;9.866;2022-08-18T04:41:45;100195.25;;;19.84;92.18
13934;BME280;7039;52.168;9.866;2022-08-18T04:44:13;100195.38;;;19.92;91.72
13934;BME280;7039;52.168;9.866;2022-08-18T04:46:44;100188.53;;;19.99;91.63
13934;BME280;7039;52.168;9.866;2022-08-18T04:49:13;100197.03;;;19.93;92.52
13934;BME280;7039;52.168;9.866;2022-08-18T04:51:44;100200.53;;;19.93;92.21
13934;BME280;7039;52.168;9.866;2022-08-18T04:54:32;100202.59;;;19.99;92.13
13934;BME280;7039;52.168;9.866;2022-08-18T04:57:05;100190.31;;;20.08;92.09
13934;BME280;7039;52.168;9.866;2022-08-18T04:59:32;100196.31;;;20.10;91.89
13934;BME280;7039;52.168;9.866;2022-08-18T05:02:00;100197.25;;;20.09;91.67
13934;BME280;7039;52.168;9.866;2022-08-18T05:04:31;100196.03;;;20.03;92.20
13934;BME280;7039;52.168;9.866;2022-08-18T05:06:59;100192.06;;;19.90;92.52
13934;BME280;7039;52.168;9.866;2022-08-18T05:09:25;100198.59;;;19.86;93.53
13934;BME280;7039;52.168;9.866;2022-08-18T05:11:52;100194.59;;;19.72;95.65
13934;BME280;7039;52.168;9.866;2022-08-18T05:14:18;100204.34;;;19.71;96.59
13934;BME280;7039;52.168;9.866;2022-08-18T05:16:45;100203.66;;;19.69;97.38
13934;BME280;7039;52.168;9.866;2022-08-18T05:19:14;100199.59;;;19.75;97.82
13934;BME280;7039;52.168;9.866;2022-08-18T05:21:42;100207.81;;;19.81;97.82
13934;BME280;7039;52.168;9.866;2022-08-18T05:24:08;100212.81;;;19.75;98.13
13934;BME280;7039;52.168;9.866;2022-08-18T05:26:35;100204.59;;;19.88;97.85
13934;BME280;7039;52.168;9.866;2022-08-18T05:29:02;100201.94;;;19.88;97.69
13934;BME280;7039;52.168;9.866;2022-08-18T05:31:29;100203.59;;;19.98;97.43
13934;BME280;7039;52.168;9.866;2022-08-18T05:33:57;100203.81;;;20.05;96.81
13934;BME280;7039;52.168;9.866;2022-08-18T05:36:41;100213.16;;;20.09;96.89
13934;BME280;7039;52.168;9.866;2022-08-18T05:39:18;100212.88;;;20.12;96.80
13934;BME280;7039;52.168;9.866;2022-08-18T05:41:50;100211.69;;;20.24;96.42
13934;BME280;7039;52.168;9.866;2022-08-18T05:44:20;100224.66;;;20.28;96.52
13934;BME280;7039;52.168;9.866;2022-08-18T05:46:49;100225.75;;;20.35;96.53
13934;BME280;7039;52.168;9.866;2022-08-18T05:49:17;100219.16;;;20.39;95.91
13934;BME280;7039;52.168;9.866;2022-08-18T05:51:46;100223.19;;;20.43;96.38
13934;BME280;7039;52.168;9.866;2022-08-18T05:54:15;100224.13;;;20.52;96.17
13934;BME280;7039;52.168;9.866;2022-08-18T05:57:04;100227.34;;;20.55;95.19
13934;BME280;7039;52.168;9.866;2022-08-18T05:59:37;100228.56;;;20.61;95.21
13934;BME280;7039;52.168;9.866;2022-08-18T06:02:10;100225.16;;;20.69;95.08
13934;BME280;7039;52.168;9.866;2022-08-18T06:04:42;100221.88;;;20.67;95.20
13934;BME280;7039;52.168;9.866;2022-08-18T06:07:13;100227.94;;;20.77;94.75
13934;BME280;7039;52.168;9.866;2022-08-18T06:09:46;100224.06;;;20.89;94.15
13934;BME280;7039;52.168;9.866;2022-08-18T06:12:22;100224.53;;;20.84;93.81
13934;BME280;7039;52.168;9.866;2022-08-18T06:14:50;100233.31;;;20.85;94.03
13934;BME280;7039;52.168;9.866;2022-08-18T06:17:36;100234.91;;;20.96;93.66
13934;BME280;7039;52.168;9.866;2022-08-18T06:20:12;100228.09;;;20.93;93.16
13934;BME280;7039;52.168;9.866;2022-08-18T06:22:46;100226.28;;;20.94;93.83
13934;BME280;7039;52.168;9.866;2022-08-18T06:25:24;100224.03;;;20.99;93.86
13934;BME280;7039;52.168;9.866;2022-08-18T06:27:54;100224.84;;;20.99;93.26
13934;BME280;7039;52.168;9.866;2022-08-18T06:30:44;100229.41;;;21.07;93.25
13934;BME280;7039;52.168;9.866;2022-08-18T06:33:21;100224.41;;;21.04;93.00
13934;BME280;7039;52.168;9.866;2022-08-18T06:35:58;100238.94;;;21.00;92.77
13934;BME280;7039;52.168;9.866;2022-08-18T06:38:45;100238.84;;;21.10;92.66
13934;BME280;7039;52.168;9.866;2022-08-18T06:41:20;100244.41;;;21.16;91.73
13934;BME280;7039;52.168;9.866;2022-08-18T06:43:56;100246.38;;;21.32;91.07
13934;BME280;7039;52.168;9.866;2022-08-18T06:46:31;100241.53;;;21.27;90.57
13934;BME280;7039;52.168;9.866;2022-08-18T06:49:01;100248.06;;;21.33;90.59
13934;BME280;7039;52.168;9.866;2022-08-18T06:51:28;100248.69;;;21.45;89.58
13934;BME280;7039;52.168;9.866;2022-08-18T06:53:58;100241.31;;;21.57;89.00
13934;BME280;7039;52.168;9.866;2022-08-18T06:56:33;100241.44;;;21.73;88.69
13934;BME280;7039;52.168;9.866;2022-08-18T06:59:21;100238.59;;;21.93;87.58
13934;BME280;7039;52.168;9.866;2022-08-18T07:01:50;100257.38;;;21.99;86.38
13934;BME280;7039;52.168;9.866;2022-08-18T07:04:40;100251.97;;;22.09;85.55
13934;BME280;7039;52.168;9.866;2022-08-18T07:07:30;100262.66;;;22.17;85.58
13934;BME280;7039;52.168;9.866;2022-08-18T07:09:57;100268.06;;;22.34;85.17
13934;BME280;7039;52.168;9.866;2022-08-18T07:12:27;100269.47;;;22.46;84.25
13934;BME280;7039;52.168;9.866;2022-08-18T07:14:55;100262.53;;;22.53;83.72
13934;BME280;7039;52.168;9.866;2022-08-18T07:17:25;100264.50;;;22.51;83.20
13934;BME280;7039;52.168;9.866;2022-08-18T07:19:58;100267.25;;;22.67;82.80
13934;BME280;7039;52.168;9.866;2022-08-18T07:22:25;100263.28;;;22.80;81.90
13934;BME280;7039;52.168;9.866;2022-08-18T07:24:53;100268.16;;;22.92;81.62
13934;BME280;7039;52.168;9.866;2022-08-18T07:27:41;100264.38;;;23.03;80.55
13934;BME280;7039;52.168;9.866;2022-08-18T07:30:10;100268.81;;;22.94;81.50
13934;BME280;7039;52.168;9.866;2022-08-18T07:32:42;100274.97;;;22.95;82.06
13934;BME280;7039;52.168;9.866;2022-08-18T07:35:14;100270.56;;;23.12;81.21
13934;BME280;7039;52.168;9.866;2022-08-18T07:37:47;100274.97;;;22.95;81.39
13934;BME280;7039;52.168;9.866;2022-08-18T07:40:23;100270.69;;;23.02;81.90
13934;BME280;7039;52.168;9.866;2022-08-18T07:42:57;100269.44;;;23.31;79.45
13934;BME280;7039;52.168;9.866;2022-08-18T07:45:29;100281.56;;;23.33;80.00
13934;BME280;7039;52.168;9.866;2022-08-18T07:48:02;100283.41;;;23.33;79.22
13934;BME280;7039;52.168;9.866;2022-08-18T07:50:33;100281.09;;;23.46;78.45
13934;BME280;7039;52.168;9.866;2022-08-18T07:53:10;100281.25;;;23.53;76.88
13934;BME280;7039;52.168;9.866;2022-08-18T07:55:40;100277.75;;;23.44;75.38
13934;BME280;7039;52.168;9.866;2022-08-18T07:58:20;100262.22;;;23.07;75.88
13934;BME280;7039;52.168;9.866;2022-08-18T08:00:54;100277.25;;;23.32;76.08
13934;BME280;7039;52.168;9.866;2022-08-18T08:03:37;100271.41;;;23.29;75.86
13934;BME280;7039;52.168;9.866;2022-08-18T08:06:11;100276.31;;;22.57;76.93
13934;BME280;7039;52.168;9.866;2022-08-18T08:08:42;100275.34;;;22.58;78.39
13934;BME280;7039;52.168;9.866;2022-08-18T08:11:20;100262.41;;;22.28;78.36
13934;BME280;7039;52.168;9.866;2022-08-18T08:14:00;100267.81;;;22.19;79.58
13934;BME280;7039;52.168;9.866;2022-08-18T08:16:42;100273.88;;;22.11;79.24
13934;BME280;7039;52.168;9.866;2022-08-18T08:19:27;100275.72;;;22.10;79.71
13934;BME280;7039;52.168;9.866;2022-08-18T08:22:04;100283.84;;;22.09;79.99
13934;BME280;7039;52.168;9.866;2022-08-18T08:24:37;100279.19;;;22.29;79.58
13934;BME280;7039;52.168;9.866;2022-08-18T08:27:12;100280.13;;;22.54;78.26
13934;BME280;7039;52.168;9.866;2022-08-18T08:29:48;100283.19;;;22.67;76.26
13934;BME280;7039;52.168;9.866;2022-08-18T08:32:25;100274.25;;;22.77;76.95
13934;BME280;7039;52.168;9.866;2022-08-18T08:35:00;100276.63;;;22.88;76.89
13934;BME280;7039;52.168;9.866;2022-08-18T08:37:32;100271.88;;;23.08;75.75
13934;BME280;7039;52.168;9.866;2022-08-18T08:40:05;100275.38;;;23.08;76.15
13934;BME280;7039;52.168;9.866;2022-08-18T08:42:38;100277.56;;;23.21;76.65
13934;BME280;7039;52.168;9.866;2022-08-18T08:45:08;100280.22;;;23.21;75.08
13934;BME280;7039;52.168;9.866;2022-08-18T08:47:41;100280.41;;;23.28;75.53
13934;BME280;7039;52.168;9.866;2022-08-18T08:50:12;100286.22;;;23.23;74.93
13934;BME280;7039;52.168;9.866;2022-08-18T08:52:42;100284.06;;;23.43;74.84
13934;BME280;7039;52.168;9.866;2022-08-18T08:55:15;100280.09;;;23.39;74.33
13934;BME280;7039;52.168;9.866;2022-08-18T08:57:47;100278.59;;;23.45;74.02
13934;BME280;7039;52.168;9.866;2022-08-18T09:00:17;100275.56;;;23.15;73.76
13934;BME280;7039;52.168;9.866;2022-08-18T09:03:07;100274.25;;;23.35;74.50
13934;BME280;7039;52.168;9.866;2022-08-18T09:05:40;100276.75;;;23.53;74.47
13934;BME280;7039;52.168;9.866;2022-08-18T09:08:27;100268.94;;;23.60;73.01
13934;BME280;7039;52.168;9.866;2022-08-18T09:11:16;100271.94;;;23.73;72.16
13934;BME280;7039;52.168;9.866;2022-08-18T09:14:24;100275.94;;;23.94;71.97
13934;BME280;7039;52.168;9.866;2022-08-18T09:17:11;100285.19;;;24.39;70.45
13934;BME280;7039;52.168;9.866;2022-08-18T09:19:52;100293.84;;;24.33;74.17
13934;BME280;7039;52.168;9.866;2022-08-18T09:22:33;100279.19;;;24.37;73.92
13934;BME280;7039;52.168;9.866;2022-08-18T09:25:08;100283.00;;;24.51;72.19
13934;BME280;7039;52.168;9.866;2022-08-18T09:27:40;100282.38;;;24.32;72.90
13934;BME280;7039;52.168;9.866;2022-08-18T09:30:42;100282.22;;;24.17;73.73
13934;BME280;7039;52.168;9.866;2022-08-18T09:33:22;100287.94;;;23.82;75.22
13934;BME280;7039;52.168;9.866;2022-08-18T09:36:03;100282.56;;;23.98;73.59
13934;BME280;7039;52.168;9.866;2022-08-18T09:38:36;100293.22;;;23.98;73.96
13934;BME280;7039;52.168;9.866;2022-08-18T09:41:23;100286.56;;;24.10;74.61
13934;BME280;7039;52.168;9.866;2022-08-18T09:44:01;100295.69;;;24.32;73.36
13934;BME280;7039;52.168;9.866;2022-08-18T09:46:58;100294.22;;;24.22;71.94
13934;BME280;7039;52.168;9.866;2022-08-18T09:49:41;100299.84;;;24.27;72.42
13934;BME280;7039;52.168;9.866;2022-08-18T09:55:41;100290.06;;;24.11;71.49
13934;BME280;7039;52.168;9.866;2022-08-18T09:58:19;100299.50;;;24.30;70.71
13934;BME280;7039;52.168;9.866;2022-08-18T10:01:19;100297.16;;;24.51;69.29
13934;BME280;7039;52.168;9.866;2022-08-18T10:06:50;100290.28;;;24.57;67.11
13934;BME280;7039;52.168;9.866;2022-08-18T10:09:26;100294.72;;;24.73;66.43
13934;BME280;7039;52.168;9.866;2022-08-18T10:12:09;100290.69;;;24.85;66.11
13934;BME280;7039;52.168;9.866;2022-08-18T10:15:04;100292.47;;;24.93;66.60
13934;BME280;7039;52.168;9.866;2022-08-18T10:17:46;100296.88;;;24.77;66.42
13934;BME280;7039;52.168;9.866;2022-08-18T10:20:32;100289.88;;;24.76;66.37
13934;BME280;7039;52.168;9.866;2022-08-18T10:23:05;100294.03;;;24.87;63.73
13934;BME280;7039;52.168;9.866;2022-08-18T10:25:37;100289.16;;;24.59;65.89
13934;BME280;7039;52.168;9.866;2022-08-18T10:28:07;100283.09;;;24.66;65.85
13934;BME280;7039;52.168;9.866;2022-08-18T10:34:10;100288.75;;;25.02;65.80
13934;BME280;7039;52.168;9.866;2022-08-18T10:36:45;100282.66;;;25.25;65.61
13934;BME280;7039;52.168;9.866;2022-08-18T10:39:17;100284.38;;;25.40;64.38
13934;BME280;7039;52.168;9.866;2022-08-18T10:42:02;100279.09;;;25.55;63.87
13934;BME280;7039;52.168;9.866;2022-08-18T10:44:33;100276.53;;;25.62;64.48
13934;BME280;7039;52.168;9.866;2022-08-18T10:47:02;100283.09;;;25.74;63.46
13934;BME280;7039;52.168;9.866;2022-08-18T10:49:30;100288.50;;;25.66;62.65
13934;BME280;7039;52.168;9.866;2022-08-18T10:52:13;100293.13;;;25.72;62.86
13934;BME280;7039;52.168;9.866;2022-08-18T10:54:57;100298.22;;;26.05;62.92
13934;BME280;7039;52.168;9.866;2022-08-18T10:57:31;100289.19;;;26.36;62.00
13934;BME280;7039;52.168;9.866;2022-08-18T11:00:03;100287.00;;;26.69;62.07
13934;BME280;7039;52.168;9.866;2022-08-18T11:02:42;100292.88;;;26.94;61.71
13934;BME280;7039;52.168;9.866;2022-08-18T11:05:19;100282.75;;;27.11;59.96
13934;BME280;7039;52.168;9.866;2022-08-18T11:07:48;100272.44;;;26.72;60.60
13934;BME280;7039;52.168;9.866;2022-08-18T11:10:19;100283.22;;;26.63;60.36
13934;BME280;7039;52.168;9.866;2022-08-18T11:13:03;100280.75;;;26.62;59.97
13934;BME280;7039;52.168;9.866;2022-08-18T11:15:38;100277.53;;;27.03;60.67
13934;BME280;7039;52.168;9.866;2022-08-18T11:18:18;100278.50;;;27.17;59.10
13934;BME280;7039;52.168;9.866;2022-08-18T11:20:53;100280.53;;;27.15;59.83
13934;BME280;7039;52.168;9.866;2022-08-18T11:23:19;100265.84;;;27.47;58.82
13934;BME280;7039;52.168;9.866;2022-08-18T11:25:47;100259.63;;;27.89;57.45
13934;BME280;7039;52.168;9.866;2022-08-18T11:28:16;100279.47;;;27.74;56.37
13934;BME280;7039;52.168;9.866;2022-08-18T11:30:44;100268.97;;;27.51;56.95
13934;BME280;7039;52.168;9.866;2022-08-18T11:33:13;100264.63;;;27.49;57.67
13934;BME280;7039;52.168;9.866;2022-08-18T11:35:45;100258.50;;;27.34;57.94
13934;BME280;7039;52.168;9.866;2022-08-18T11:38:14;100264.00;;;27.26;57.93
13934;BME280;7039;52.168;9.866;2022-08-18T11:40:44;100264.72;;;26.98;59.28
13934;BME280;7039;52.168;9.866;2022-08-18T11:43:16;100262.22;;;27.33;59.71
13934;BME280;7039;52.168;9.866;2022-08-18T11:45:50;100258.31;;;27.57;57.64
13934;BME280;7039;52.168;9.866;2022-08-18T11:48:20;100249.25;;;27.86;56.82
13934;BME280;7039;52.168;9.866;2022-08-18T11:50:59;100247.22;;;28.17;55.27
13934;BME280;7039;52.168;9.866;2022-08-18T11:53:36;100244.53;;;28.17;54.76
13934;BME280;7039;52.168;9.866;2022-08-18T11:56:10;100243.72;;;27.88;54.55
13934;BME280;7039;52.168;9.866;2022-08-18T11:58:40;100237.81;;;27.71;54.12
13934;BME280;7039;52.168;9.866;2022-08-18T12:01:07;100236.63;;;27.80;54.99
13934;BME280;7039;52.168;9.866;2022-08-18T12:03:38;100228.09;;;27.92;56.31
13934;BME280;7039;52.168;9.866;2022-08-18T12:06:12;100224.63;;;28.39;56.49
13934;BME280;7039;52.168;9.866;2022-08-18T12:08:50;100226.19;;;28.62;53.67
13934;BME280;7039;52.168;9.866;2022-08-18T12:11:20;100218.63;;;28.85;53.46
13934;BME280;7039;52.168;9.866;2022-08-18T12:14:04;100216.91;;;28.58;52.48
13934;BME280;7039;52.168;9.866;2022-08-18T12:16:38;100218.63;;;27.96;55.49
13934;BME280;7039;52.168;9.866;2022-08-18T12:19:06;100217.72;;;27.60;55.88
13934;BME280;7039;52.168;9.866;2022-08-18T12:21:37;100217.13;;;27.65;55.58
13934;BME280;7039;52.168;9.866;2022-08-18T12:24:05;100218.88;;;27.51;55.83
13934;BME280;7039;52.168;9.866;2022-08-18T12:26:34;100228.97;;;27.49;55.67
13934;BME280;7039;52.168;9.866;2022-08-18T12:29:02;100221.75;;;27.49;55.81
13934;BME280;7039;52.168;9.866;2022-08-18T12:31:29;100215.47;;;27.36;55.60
13934;BME280;7039;52.168;9.866;2022-08-18T12:33:55;100219.53;;;27.32;55.97
13934;BME280;7039;52.168;9.866;2022-08-18T12:36:22;100224.78;;;27.40;56.00
13934;BME280;7039;52.168;9.866;2022-08-18T12:38:49;100226.50;;;27.26;55.90
13934;BME280;7039;52.168;9.866;2022-08-18T12:41:15;100221.56;;;27.51;55.59
13934;BME280;7039;52.168;9.866;2022-08-18T12:43:42;100220.63;;;27.65;55.72
13934;BME280;7039;52.168;9.866;2022-08-18T12:46:10;100217.53;;;27.62;56.48
13934;BME280;7039;52.168;9.866;2022-08-18T12:48:36;100227.97;;;27.28;57.71
13934;BME280;7039;52.168;9.866;2022-08-18T12:51:04;100220.50;;;27.24;57.78
13934;BME280;7039;52.168;9.866;2022-08-18T12:53:31;100232.41;;;27.43;56.33
13934;BME280;7039;52.168;9.866;2022-08-18T12:55:59;100221.03;;;27.62;56.63
13934;BME280;7039;52.168;9.866;2022-08-18T12:58:26;100206.41;;;27.65;57.19
13934;BME280;7039;52.168;9.866;2022-08-18T13:00:53;100206.34;;;27.80;56.12
13934;BME280;7039;52.168;9.866;2022-08-18T13:03:21;100203.69;;;27.86;56.51
13934;BME280;7039;52.168;9.866;2022-08-18T13:05:48;100207.66;;;27.90;55.73
13934;BME280;7039;52.168;9.866;2022-08-18T13:08:17;100201.69;;;27.95;55.55
13934;BME280;7039;52.168;9.866;2022-08-18T13:10:46;100202.69;;;27.66;56.48
13934;BME280;7039;52.168;9.866;2022-08-18T13:13:14;100205.50;;;27.51;56.25
13934;BME280;7039;52.168;9.866;2022-08-18T13:15:41;100213.03;;;27.41;56.38
13934;BME280;7039;52.168;9.866;2022-08-18T13:18:07;100217.31;;;27.35;56.01
13934;BME280;7039;52.168;9.866;2022-08-18T13:20:35;100216.06;;;27.59;56.90
13934;BME280;7039;52.168;9.866;2022-08-18T13:23:02;100217.63;;;27.47;56.30
13934;BME280;7039;52.168;9.866;2022-08-18T13:25:29;100208.41;;;27.56;56.93
13934;BME280;7039;52.168;9.866;2022-08-18T13:27:56;100201.31;;;27.42;56.53
13934;BME280;7039;52.168;9.866;2022-08-18T13:30:23;100201.78;;;27.52;56.23
13934;BME280;7039;52.168;9.866;2022-08-18T13:32:49;100206.03;;;27.68;56.06
13934;BME280;7039;52.168;9.866;2022-08-18T13:35:17;100198.81;;;27.97;55.65